This is the latest recevied weather packets stored in our database for station/object W2GUX. If no packets are shown the sender has not sent any weather packets the latest 10 day(s).
| Time | Temp. | Humidity | Pressure | Rain* | Wind** | Luminosity | Snow |
|---|---|---|---|---|---|---|---|
| 1778172903 | 16.67° C | 28% | 1006.9 hPa | 0 mm | - | - | - |
| 1778172603 | 17.22° C | 26% | 1006.9 hPa | 0 mm | - | - | - |
| 1778172303 | 17.22° C | 26% | 1007 hPa | 0 mm | - | - | - |
| 1778172004 | 17.78° C | 28% | 1007 hPa | 0 mm | - | - | - |
| 1778171704 | 17.22° C | 27% | 1007 hPa | 0 mm | - | - | - |
| 1778171403 | 16.67° C | 28% | 1007.1 hPa | 0 mm | - | - | - |
| 1778171103 | 16.67° C | 27% | 1007.2 hPa | 0 mm | - | - | - |
| 1778170804 | 16.67° C | 30% | 1007.1 hPa | 0 mm | - | - | - |
| 1778170504 | 16.67° C | 28% | 1007.3 hPa | 0 mm | - | - | - |
| 1778170204 | 16.67° C | 32% | 1007.3 hPa | 0 mm | - | - | - |
| 1778169903 | 16.67° C | 29% | 1007.3 hPa | 0 mm | - | - | - |
| 1778169604 | 16.67° C | 29% | 1007.3 hPa | 0 mm | - | - | - |
| 1778169304 | 16.11° C | 31% | 1007.3 hPa | 0 mm | - | - | - |
| 1778169003 | 15.56° C | 29% | 1007.5 hPa | 0 mm | - | - | - |
| 1778168703 | 15.56° C | 28% | 1007.6 hPa | 0 mm | - | - | - |
| 1778168403 | 16.11° C | 29% | 1007.7 hPa | 0 mm | - | - | - |
| 1778168104 | 16.11° C | 30% | 1007.7 hPa | 0 mm | - | - | - |
| 1778167804 | 16.11° C | 29% | 1007.7 hPa | 0 mm | - | - | - |
| 1778167503 | 15.56° C | 29% | 1007.8 hPa | 0 mm | - | - | - |
| 1778167203 | 15.56° C | 30% | 1007.9 hPa | 0 mm | - | - | - |
| 1778166903 | 15° C | 30% | 1007.9 hPa | 0 mm | - | - | - |
| 1778166604 | 15.56° C | 29% | 1008 hPa | 0 mm | - | - | - |
| 1778166304 | 15.56° C | 27% | 1008.1 hPa | 0 mm | - | - | - |
| 1778166004 | 15.56° C | 28% | 1008.1 hPa | 0 mm | - | - | - |
| 1778165703 | 15.56° C | 32% | 1008 hPa | 0 mm | - | - | - |
* Rain latest hour (hover to see other rain measurements)
** Current wind speed in m/s (hover to see current wind gust speed)